createdAt,value
2018-10-05T00:00:54.156Z,10.20
2018-10-05T00:03:22.310Z,9.67
2018-10-05T00:05:50.502Z,9.90
2018-10-05T00:08:18.702Z,8.80
2018-10-05T00:10:46.865Z,9.60
2018-10-05T00:13:15.065Z,8.67
2018-10-05T00:15:43.225Z,10.40
2018-10-05T00:18:11.409Z,9.93
2018-10-05T00:20:39.741Z,10.00
2018-10-05T00:23:07.925Z,10.10
2018-10-05T00:25:36.272Z,9.90
2018-10-05T00:28:04.520Z,11.47
2018-10-05T00:30:32.778Z,10.23
2018-10-05T00:33:00.924Z,10.50
2018-10-05T00:35:29.100Z,10.17
2018-10-05T00:37:57.308Z,10.03
2018-10-05T00:40:25.474Z,9.20
2018-10-05T00:42:53.701Z,10.40
2018-10-05T00:45:21.926Z,9.80
2018-10-05T00:47:50.113Z,10.33
2018-10-05T00:50:18.498Z,10.17
2018-10-05T00:52:46.729Z,9.63
2018-10-05T00:55:14.885Z,9.70
2018-10-05T00:57:43.072Z,9.87
2018-10-05T01:00:11.241Z,10.40
2018-10-05T01:02:39.497Z,9.93
2018-10-05T01:05:07.669Z,10.10
2018-10-05T01:07:35.835Z,8.80
2018-10-05T01:10:03.996Z,9.83
2018-10-05T01:12:32.161Z,10.30
2018-10-05T01:15:00.333Z,10.20
2018-10-05T01:17:28.505Z,8.57
2018-10-05T01:19:56.764Z,9.83
2018-10-05T01:22:24.917Z,10.07
2018-10-05T01:24:53.093Z,9.40
2018-10-05T01:27:21.307Z,9.48
2018-10-05T01:29:49.459Z,10.00
2018-10-05T01:32:17.619Z,9.70
2018-10-05T01:34:45.801Z,9.83
2018-10-05T01:37:14.102Z,10.23
2018-10-05T01:39:42.260Z,10.93
2018-10-05T01:42:10.441Z,10.47
2018-10-05T01:44:38.594Z,10.60
2018-10-05T01:47:06.769Z,9.30
2018-10-05T01:49:34.974Z,9.37
2018-10-05T01:52:03.138Z,10.60
2018-10-05T01:54:31.310Z,10.57
2018-10-05T01:56:59.514Z,10.37
2018-10-05T01:59:27.671Z,10.03
2018-10-05T02:01:55.864Z,10.40
2018-10-05T02:04:24.030Z,9.90
2018-10-05T02:06:52.290Z,10.03
2018-10-05T02:09:20.678Z,10.10
2018-10-05T02:11:48.901Z,10.60
2018-10-05T02:14:17.050Z,10.60
2018-10-05T02:16:45.769Z,11.25
2018-10-05T02:19:13.933Z,10.40
2018-10-05T02:21:42.417Z,11.17
2018-10-05T02:24:10.626Z,11.70
2018-10-05T02:26:38.826Z,10.93
2018-10-05T02:29:07.082Z,11.33
2018-10-05T02:31:35.465Z,9.70
2018-10-05T02:34:03.649Z,11.03
2018-10-05T02:36:31.902Z,9.87
2018-10-05T02:39:00.057Z,9.53
2018-10-05T02:41:28.320Z,10.03
2018-10-05T02:43:56.425Z,9.90
2018-10-05T02:46:24.597Z,10.50
2018-10-05T02:48:54.964Z,10.10
2018-10-05T02:51:23.166Z,9.63
2018-10-05T02:53:51.312Z,10.43
2018-10-05T02:56:19.814Z,10.00
2018-10-05T02:58:47.980Z,10.70
2018-10-05T03:01:27.756Z,10.43
2018-10-05T03:03:55.958Z,9.27
2018-10-05T03:06:24.134Z,9.87
2018-10-05T03:08:52.312Z,10.57
2018-10-05T03:11:20.489Z,10.30
2018-10-05T03:13:48.663Z,9.37
2018-10-05T03:16:16.841Z,9.93
2018-10-05T03:18:45.105Z,9.90
2018-10-05T03:21:13.285Z,10.20
2018-10-05T03:23:41.462Z,9.93
2018-10-05T03:26:10.084Z,9.70
2018-10-05T03:28:38.253Z,10.27
2018-10-05T03:31:07.350Z,10.40
2018-10-05T03:33:35.619Z,9.17
2018-10-05T03:36:03.921Z,8.93
2018-10-05T03:38:32.156Z,12.80
2018-10-05T03:41:00.446Z,10.03
2018-10-05T03:43:28.714Z,9.83
2018-10-05T03:45:57.004Z,9.90
2018-10-05T03:48:25.290Z,9.60
2018-10-05T03:50:53.458Z,10.80
2018-10-05T03:53:21.711Z,9.83
2018-10-05T03:55:49.870Z,9.60
2018-10-05T03:58:18.042Z,9.83
2018-10-05T04:00:46.258Z,10.83
2018-10-05T04:03:14.422Z,11.13
2018-10-05T04:05:42.662Z,10.37
2018-10-05T04:08:10.854Z,9.63
2018-10-05T04:10:39.089Z,12.23
2018-10-05T04:13:07.293Z,10.67
2018-10-05T04:15:35.551Z,11.23
2018-10-05T04:18:04.077Z,11.30
2018-10-05T04:20:32.345Z,10.70
2018-10-05T04:23:00.609Z,10.40
2018-10-05T04:25:28.777Z,10.70
2018-10-05T04:27:56.949Z,11.53
2018-10-05T04:30:25.442Z,11.57
2018-10-05T04:32:53.709Z,12.63
2018-10-05T04:35:21.877Z,13.70
2018-10-05T04:37:50.162Z,13.07
2018-10-05T04:40:18.308Z,11.40
2018-10-05T04:42:46.512Z,10.87
2018-10-05T04:45:14.692Z,12.10
2018-10-05T04:47:42.864Z,11.67
2018-10-05T04:50:11.031Z,11.53
2018-10-05T04:52:39.208Z,11.30
2018-10-05T04:55:07.386Z,11.47
2018-10-05T04:57:35.541Z,11.90
2018-10-05T05:00:03.775Z,11.47
2018-10-05T05:02:31.930Z,12.23
2018-10-05T05:05:00.204Z,12.10
2018-10-05T05:07:28.384Z,11.60
2018-10-05T05:09:56.586Z,13.17
2018-10-05T05:12:24.746Z,12.17
2018-10-05T05:14:52.917Z,12.17
2018-10-05T05:17:21.108Z,13.77
2018-10-05T05:19:49.258Z,16.73
2018-10-05T05:22:17.441Z,16.40
2018-10-05T05:24:45.594Z,15.30
2018-10-05T05:27:13.844Z,15.60
2018-10-05T05:29:42.045Z,14.43
2018-10-05T05:32:10.213Z,12.40
2018-10-05T05:34:38.375Z,15.10
2018-10-05T05:37:06.547Z,14.10
2018-10-05T05:39:34.741Z,14.83
2018-10-05T05:42:02.907Z,15.03
2018-10-05T05:44:31.417Z,14.37
2018-10-05T05:46:59.669Z,14.00
2018-10-05T05:49:27.809Z,14.77
2018-10-05T05:51:56.001Z,14.40
2018-10-05T05:54:24.191Z,16.60
2018-10-05T05:56:52.360Z,16.40
2018-10-05T05:59:20.649Z,17.30
2018-10-05T06:01:48.816Z,17.40
2018-10-05T06:04:17.071Z,16.70
2018-10-05T06:06:45.496Z,17.82
2018-10-05T06:09:13.914Z,18.10
2018-10-05T06:11:42.087Z,19.27
2018-10-05T06:14:10.328Z,18.20
2018-10-05T06:16:38.553Z,20.80
2018-10-05T06:19:06.778Z,22.40
2018-10-05T06:21:35.110Z,19.37
2018-10-05T06:24:03.178Z,19.13
2018-10-05T06:26:31.348Z,18.53
2018-10-05T06:28:59.521Z,17.30
2018-10-05T06:31:27.698Z,18.23
2018-10-05T06:33:55.878Z,16.53
2018-10-05T06:36:24.518Z,16.25
2018-10-05T06:38:52.685Z,17.10
2018-10-05T06:41:21.113Z,16.57
2018-10-05T06:43:49.314Z,18.60
2018-10-05T06:46:17.465Z,14.93
2018-10-05T06:48:45.638Z,16.10
2018-10-05T06:51:13.817Z,15.80
2018-10-05T06:53:41.989Z,15.83
2018-10-05T06:56:10.179Z,15.53
2018-10-05T06:58:38.615Z,14.20
2018-10-05T07:01:07.125Z,13.53
2018-10-05T07:03:35.286Z,14.27
2018-10-05T07:06:03.478Z,14.07
2018-10-05T07:08:31.652Z,14.73
2018-10-05T07:10:59.812Z,13.17
2018-10-05T07:13:27.984Z,13.30
2018-10-05T07:15:56.181Z,14.00
2018-10-05T07:18:24.341Z,13.03
2018-10-05T07:20:52.530Z,14.33
2018-10-05T07:23:20.784Z,14.30
2018-10-05T07:25:49.179Z,13.00
2018-10-05T07:28:17.494Z,12.97
2018-10-05T07:30:45.829Z,13.30
2018-10-05T07:33:14.010Z,12.20
2018-10-05T07:35:42.190Z,11.50
2018-10-05T07:38:10.452Z,11.83
2018-10-05T07:40:38.653Z,11.77
2018-10-05T07:43:07.109Z,10.73
2018-10-05T07:45:35.173Z,10.97
2018-10-05T07:48:03.345Z,11.00
2018-10-05T07:50:31.540Z,10.57
2018-10-05T07:52:59.788Z,11.00
2018-10-05T07:55:27.957Z,9.67
2018-10-05T07:57:56.197Z,10.93
2018-10-05T08:00:24.338Z,11.80
2018-10-05T08:02:52.509Z,10.60
2018-10-05T08:05:20.788Z,11.20
2018-10-05T08:07:48.960Z,11.00
2018-10-05T08:10:17.124Z,11.13
2018-10-05T08:12:45.314Z,11.17
2018-10-05T08:15:13.493Z,12.23
2018-10-05T08:17:41.750Z,12.07
2018-10-05T08:20:09.934Z,12.67
2018-10-05T08:22:38.132Z,12.47
2018-10-05T08:25:06.432Z,12.27
2018-10-05T08:27:34.677Z,12.23
2018-10-05T08:30:02.850Z,12.10
2018-10-05T08:32:31.021Z,13.90
2018-10-05T08:34:59.201Z,13.57
2018-10-05T08:37:27.359Z,11.53
2018-10-05T08:39:55.647Z,12.00
2018-10-05T08:42:23.821Z,13.00
2018-10-05T08:44:52.069Z,11.67
2018-10-05T08:47:20.365Z,12.05
2018-10-05T08:49:48.638Z,11.50
2018-10-05T08:52:16.876Z,13.17
2018-10-05T08:54:44.957Z,10.97
2018-10-05T08:57:13.145Z,11.23
2018-10-05T08:59:41.632Z,12.13
2018-10-05T09:02:09.805Z,11.60
2018-10-05T09:04:38.626Z,9.73
2018-10-05T09:07:06.873Z,10.60
2018-10-05T09:09:35.049Z,11.07
2018-10-05T09:12:03.344Z,11.60
2018-10-05T09:14:31.589Z,10.50
2018-10-05T09:16:59.894Z,10.30
2018-10-05T09:19:28.076Z,9.73
2018-10-05T09:21:56.812Z,10.90
2018-10-05T09:24:24.990Z,10.10
2018-10-05T09:26:53.186Z,10.20
2018-10-05T09:29:21.462Z,9.47
2018-10-05T09:31:49.634Z,9.90
2018-10-05T09:34:17.814Z,10.10
2018-10-05T09:36:46.069Z,8.03
2018-10-05T09:39:14.266Z,9.43
2018-10-05T09:41:42.499Z,9.70
2018-10-05T09:44:10.679Z,9.27
2018-10-05T09:46:38.954Z,9.33
2018-10-05T09:49:07.120Z,9.23
2018-10-05T09:51:35.334Z,7.77
2018-10-05T09:54:03.529Z,8.73
2018-10-05T09:56:31.705Z,7.20
2018-10-05T09:58:59.952Z,8.20
2018-10-05T10:01:33.605Z,8.47
2018-10-05T10:04:01.777Z,8.10
2018-10-05T10:06:30.006Z,8.80
2018-10-05T10:08:58.181Z,7.67
2018-10-05T10:11:26.345Z,8.27
2018-10-05T10:13:54.713Z,7.40
2018-10-05T10:16:22.981Z,8.10
2018-10-05T10:18:51.160Z,9.10
2018-10-05T10:21:19.362Z,8.57
2018-10-05T10:23:47.866Z,7.63
2018-10-05T10:26:16.393Z,6.93
2018-10-05T10:28:44.708Z,7.27
2018-10-05T10:31:12.730Z,6.37
2018-10-05T10:33:40.946Z,6.30
2018-10-05T10:36:09.070Z,4.93
2018-10-05T10:38:37.358Z,5.30
2018-10-05T10:41:05.539Z,5.47
2018-10-05T10:43:33.765Z,5.13
2018-10-05T10:46:02.059Z,5.47
2018-10-05T10:48:30.425Z,5.07
2018-10-05T10:50:58.636Z,5.20
2018-10-05T10:53:26.824Z,5.30
2018-10-05T10:55:54.994Z,6.23
2018-10-05T10:58:23.204Z,8.47
2018-10-05T11:00:51.484Z,5.37
2018-10-05T11:03:20.412Z,5.30
2018-10-05T11:05:48.604Z,5.00
2018-10-05T11:08:17.104Z,5.10
2018-10-05T11:10:45.402Z,5.10
2018-10-05T11:13:13.573Z,4.70
2018-10-05T11:15:41.782Z,4.07
2018-10-05T11:18:10.057Z,4.60
2018-10-05T11:20:38.365Z,4.30
2018-10-05T11:23:06.738Z,3.90
2018-10-05T11:25:34.886Z,4.30
2018-10-05T11:28:03.137Z,6.33
2018-10-05T11:30:31.332Z,4.87
2018-10-05T11:32:59.585Z,5.10
2018-10-05T11:35:28.087Z,4.70
2018-10-05T11:37:56.356Z,6.50
2018-10-05T11:40:24.528Z,6.37
2018-10-05T11:42:52.712Z,4.50
2018-10-05T11:45:20.898Z,4.27
2018-10-05T11:47:49.161Z,4.30
2018-10-05T11:50:17.417Z,4.13
2018-10-05T11:52:45.598Z,5.20
2018-10-05T11:55:13.791Z,4.47
2018-10-05T11:57:42.054Z,4.30
2018-10-05T12:00:10.298Z,3.70
2018-10-05T12:02:38.619Z,4.10
2018-10-05T12:05:06.951Z,4.33
2018-10-05T12:07:35.159Z,4.30
2018-10-05T12:10:03.316Z,5.07
2018-10-05T12:12:31.490Z,4.20
2018-10-05T12:15:00.548Z,4.30
2018-10-05T12:17:28.748Z,4.20
2018-10-05T12:19:56.986Z,4.70
2018-10-05T12:22:25.437Z,4.20
2018-10-05T12:24:53.730Z,3.70
2018-10-05T12:27:21.897Z,3.90
2018-10-05T12:29:50.171Z,3.33
2018-10-05T12:32:18.321Z,5.30
2018-10-05T12:34:46.505Z,3.23
2018-10-05T12:37:14.881Z,3.80
2018-10-05T12:39:43.072Z,2.85
2018-10-05T12:42:11.396Z,3.23
2018-10-05T12:44:39.490Z,3.35
2018-10-05T12:47:07.788Z,2.45
2018-10-05T12:49:35.957Z,3.10
2018-10-05T12:52:04.714Z,3.60
2018-10-05T12:54:32.930Z,3.30
2018-10-05T12:57:01.298Z,3.55
2018-10-05T12:59:29.630Z,3.20
2018-10-05T13:01:57.841Z,3.37
2018-10-05T13:04:26.048Z,3.40
2018-10-05T13:06:54.331Z,3.08
2018-10-05T13:09:22.686Z,4.00
2018-10-05T13:11:51.795Z,3.08
2018-10-05T13:14:21.132Z,2.80
2018-10-05T13:16:49.355Z,3.30
2018-10-05T13:19:17.522Z,3.42
2018-10-05T13:21:45.759Z,3.08
2018-10-05T13:24:14.001Z,3.02
2018-10-05T13:26:42.253Z,2.72
2018-10-05T13:29:10.417Z,2.67
2018-10-05T13:31:38.620Z,2.72
2018-10-05T13:34:06.994Z,3.08
2018-10-05T13:36:35.171Z,3.30
2018-10-05T13:39:04.086Z,2.90
2018-10-05T13:41:32.258Z,2.70
2018-10-05T13:44:00.499Z,3.45
2018-10-05T13:46:28.769Z,3.30
2018-10-05T13:48:58.493Z,2.70
2018-10-05T13:51:27.086Z,2.60
2018-10-05T13:53:55.266Z,2.75
2018-10-05T13:56:23.440Z,3.22
2018-10-05T13:58:51.706Z,2.33
2018-10-05T14:01:19.954Z,3.15
2018-10-05T14:03:48.162Z,2.35
2018-10-05T14:06:16.466Z,2.52
2018-10-05T14:08:44.629Z,2.80
2018-10-05T14:11:13.242Z,5.90
2018-10-05T14:13:41.410Z,2.67
2018-10-05T14:16:09.578Z,2.60
2018-10-05T14:18:37.771Z,2.50
2018-10-05T14:21:06.084Z,2.80
2018-10-05T14:23:34.557Z,2.35
2018-10-05T14:26:02.825Z,3.05
2018-10-05T14:28:31.025Z,2.80
2018-10-05T14:30:59.917Z,2.33
2018-10-05T14:33:28.165Z,2.58
2018-10-05T14:35:56.521Z,2.73
2018-10-05T14:38:24.683Z,3.40
2018-10-05T14:40:52.956Z,3.60
2018-10-05T14:43:21.186Z,2.53
2018-10-05T14:45:49.657Z,2.60
2018-10-05T14:48:17.899Z,2.97
2018-10-05T14:50:46.839Z,19.10
2018-10-05T14:53:15.010Z,6.77
2018-10-05T14:55:43.193Z,3.47
2018-10-05T14:58:11.457Z,2.55
2018-10-05T15:00:39.775Z,3.33
2018-10-05T15:03:07.987Z,2.70
2018-10-05T15:05:36.184Z,4.17
2018-10-05T15:08:04.448Z,13.23
2018-10-05T15:10:32.655Z,9.43
2018-10-05T15:13:00.899Z,2.60
2018-10-05T15:15:29.074Z,4.90
2018-10-05T15:17:57.301Z,2.97
2018-10-05T15:20:25.474Z,3.70
2018-10-05T15:22:53.694Z,17.53
2018-10-05T15:25:21.885Z,11.60
2018-10-05T15:27:50.305Z,37.87
2018-10-05T15:30:18.517Z,19.60
2018-10-05T15:32:46.708Z,9.77
2018-10-05T15:35:15.185Z,2.97
2018-10-05T15:37:43.353Z,3.00
2018-10-05T15:40:11.533Z,3.50
2018-10-05T15:42:39.713Z,2.57
2018-10-05T15:45:07.889Z,3.00
2018-10-05T15:47:36.162Z,2.90
2018-10-05T15:50:04.476Z,3.30
2018-10-05T15:52:32.641Z,3.00
2018-10-05T15:55:01.183Z,3.30
2018-10-05T15:57:29.391Z,3.20
2018-10-05T15:59:57.547Z,3.43
2018-10-05T16:02:25.708Z,3.30
2018-10-05T16:04:54.194Z,3.00
2018-10-05T16:07:22.394Z,3.58
2018-10-05T16:09:50.724Z,9.97
2018-10-05T16:12:18.920Z,5.17
2018-10-05T16:14:47.128Z,4.53
2018-10-05T16:17:15.268Z,4.07
2018-10-05T16:19:43.437Z,3.90
2018-10-05T16:22:11.600Z,6.33
2018-10-05T16:24:43.162Z,4.97
2018-10-05T16:27:12.046Z,4.10
2018-10-05T16:29:40.252Z,4.70
2018-10-05T16:32:09.372Z,4.70
2018-10-05T16:34:38.602Z,14.07
2018-10-05T16:37:08.265Z,7.60
2018-10-05T16:39:37.436Z,6.50
2018-10-05T16:42:06.516Z,4.93
2018-10-05T16:44:35.821Z,5.13
2018-10-05T16:47:05.045Z,13.30
2018-10-05T16:49:34.161Z,18.73
2018-10-05T16:52:03.499Z,15.53
2018-10-05T16:54:32.745Z,15.63
2018-10-05T16:57:02.029Z,13.53
2018-10-05T16:59:31.093Z,19.47
2018-10-05T17:02:00.929Z,15.10
2018-10-05T17:04:30.219Z,13.57
2018-10-05T17:06:59.405Z,15.85
2018-10-05T17:09:28.609Z,35.10
2018-10-05T17:11:57.764Z,23.83
2018-10-05T17:14:27.837Z,18.27
2018-10-05T17:16:57.480Z,13.87
2018-10-05T17:19:26.626Z,15.77
2018-10-05T17:21:56.219Z,14.40
2018-10-05T17:24:25.465Z,15.60
2018-10-05T17:26:54.756Z,15.23
2018-10-05T17:29:24.158Z,16.47
2018-10-05T17:31:53.276Z,14.83
2018-10-05T17:34:22.503Z,14.13
2018-10-05T17:36:51.718Z,13.37
2018-10-05T17:39:20.943Z,32.73
2018-10-05T17:41:50.148Z,19.93
2018-10-05T17:44:19.331Z,26.80
2018-10-05T17:46:48.666Z,15.13
2018-10-05T17:49:18.227Z,10.90
2018-10-05T17:51:47.517Z,9.03
2018-10-05T17:54:16.782Z,8.90
2018-10-05T17:56:46.041Z,9.80
2018-10-05T17:59:15.859Z,9.77
2018-10-05T18:01:45.201Z,11.40
2018-10-05T18:04:14.438Z,12.20
2018-10-05T18:06:43.569Z,11.43
2018-10-05T18:09:11.809Z,10.00
2018-10-05T18:11:40.029Z,8.27
2018-10-05T18:14:08.272Z,8.37
2018-10-05T18:16:37.034Z,7.90
2018-10-05T18:19:05.274Z,8.73
2018-10-05T18:21:33.556Z,51.90
2018-10-05T18:24:01.751Z,15.00
2018-10-05T18:26:30.686Z,8.73
2018-10-05T18:28:59.040Z,12.13
2018-10-05T18:31:27.494Z,12.10
2018-10-05T18:33:55.930Z,8.30
2018-10-05T18:36:24.274Z,9.23
2018-10-05T18:38:52.674Z,10.10
2018-10-05T18:41:20.997Z,9.63
2018-10-05T18:43:49.233Z,8.97
2018-10-05T18:46:17.493Z,9.30
2018-10-05T18:48:45.874Z,9.60
2018-10-05T18:51:14.318Z,9.80
2018-10-05T18:53:43.333Z,20.77
2018-10-05T18:56:23.561Z,11.33
2018-10-05T18:58:52.783Z,11.00
2018-10-05T19:01:22.061Z,10.90
2018-10-05T19:03:51.653Z,9.43
2018-10-05T19:06:20.935Z,9.10
2018-10-05T19:08:50.075Z,8.73
2018-10-05T19:11:19.480Z,10.53
2018-10-05T19:13:47.754Z,10.10
2018-10-05T19:16:15.981Z,10.27
2018-10-05T19:18:44.998Z,10.40
2018-10-05T19:21:13.363Z,11.50
2018-10-05T19:23:43.128Z,11.23
2018-10-05T19:26:12.101Z,11.50
2018-10-05T19:28:40.407Z,11.80
2018-10-05T19:31:09.676Z,11.93
2018-10-05T19:33:39.034Z,62.73
2018-10-05T19:36:08.556Z,43.37
2018-10-05T19:38:37.985Z,28.30
2018-10-05T19:41:07.462Z,26.83
2018-10-05T19:43:36.795Z,21.63
2018-10-05T19:46:06.298Z,35.00
2018-10-05T19:48:35.653Z,15.10
2018-10-05T19:51:04.731Z,18.00
2018-10-05T19:53:34.029Z,12.20
2018-10-05T19:56:03.493Z,14.13
2018-10-05T19:58:32.809Z,14.43
2018-10-05T20:01:02.581Z,13.40
2018-10-05T20:03:32.499Z,14.33
2018-10-05T20:06:02.067Z,16.67
2018-10-05T20:08:31.415Z,25.57
2018-10-05T20:11:00.611Z,18.70
2018-10-05T20:13:29.679Z,26.03
2018-10-05T20:15:58.619Z,15.80
2018-10-05T20:18:27.991Z,16.33
2018-10-05T20:20:57.020Z,16.63
2018-10-05T20:23:26.313Z,15.40
2018-10-05T20:25:55.501Z,16.10
2018-10-05T20:28:24.775Z,15.50
2018-10-05T20:30:54.057Z,15.80
2018-10-05T20:33:23.314Z,16.27
2018-10-05T20:35:52.857Z,18.73
2018-10-05T20:38:22.060Z,17.53
2018-10-05T20:40:51.324Z,18.53
2018-10-05T20:43:20.294Z,20.10
2018-10-05T20:45:49.550Z,19.67
2018-10-05T20:48:17.731Z,18.63
2018-10-05T20:50:45.996Z,23.20
2018-10-05T20:53:14.202Z,28.10
2018-10-05T20:55:42.606Z,24.60
2018-10-05T20:58:10.814Z,23.73
2018-10-05T21:00:39.018Z,25.03
2018-10-05T21:03:07.225Z,25.67
2018-10-05T21:05:35.405Z,23.93
2018-10-05T21:08:03.583Z,24.57
2018-10-05T21:10:32.597Z,25.00
2018-10-05T21:13:00.873Z,26.47
2018-10-05T21:15:29.349Z,52.13
2018-10-05T21:17:57.554Z,46.23
2018-10-05T21:20:25.814Z,45.37
2018-10-05T21:22:54.001Z,43.27
2018-10-05T21:25:22.269Z,42.03
2018-10-05T21:27:50.709Z,45.30
2018-10-05T21:30:18.901Z,43.93
2018-10-05T21:32:47.443Z,42.10
2018-10-05T21:35:15.913Z,34.40
2018-10-05T21:37:44.141Z,26.33
2018-10-05T21:40:12.423Z,22.53
2018-10-05T21:42:40.753Z,20.87
2018-10-05T21:45:08.923Z,19.03
2018-10-05T21:47:37.137Z,18.50
2018-10-05T21:50:05.400Z,17.37
2018-10-05T21:52:33.612Z,16.30
2018-10-05T21:55:01.785Z,15.20
2018-10-05T21:57:29.994Z,15.17
2018-10-05T21:59:58.166Z,16.00
2018-10-05T22:02:30.560Z,15.17
2018-10-05T22:04:58.758Z,14.20
2018-10-05T22:07:26.928Z,13.90
2018-10-05T22:09:55.212Z,14.87
2018-10-05T22:12:23.382Z,14.90
2018-10-05T22:14:51.576Z,17.87
2018-10-05T22:17:19.776Z,18.13
2018-10-05T22:19:47.972Z,19.10
2018-10-05T22:22:16.161Z,18.90
2018-10-05T22:24:44.467Z,17.47
2018-10-05T22:27:12.924Z,15.30
2018-10-05T22:29:41.094Z,15.90
2018-10-05T22:32:09.297Z,15.73
2018-10-05T22:34:37.549Z,18.10
2018-10-05T22:37:06.057Z,18.10
2018-10-05T22:39:34.276Z,17.03
2018-10-05T22:42:02.817Z,16.47
2018-10-05T22:44:31.070Z,15.90
2018-10-05T22:46:59.412Z,14.53
2018-10-05T22:49:27.622Z,14.97
2018-10-05T22:51:55.788Z,14.50
2018-10-05T22:54:24.348Z,14.77
2018-10-05T22:56:52.710Z,13.72
2018-10-05T22:59:20.934Z,13.17
2018-10-05T23:01:49.114Z,14.20
2018-10-05T23:04:17.290Z,14.33
2018-10-05T23:06:45.561Z,14.97
2018-10-05T23:09:13.747Z,13.10
2018-10-05T23:11:42.002Z,14.57
2018-10-05T23:14:10.165Z,13.87
2018-10-05T23:16:38.370Z,14.57
2018-10-05T23:19:06.593Z,14.37
2018-10-05T23:21:34.797Z,13.77
2018-10-05T23:24:02.973Z,13.50
2018-10-05T23:26:31.153Z,13.40
2018-10-05T23:28:59.330Z,14.67
2018-10-05T23:31:27.533Z,14.10
2018-10-05T23:33:55.701Z,14.70
2018-10-05T23:36:23.874Z,15.20
2018-10-05T23:38:52.045Z,14.20
2018-10-05T23:41:20.351Z,14.60
2018-10-05T23:43:48.524Z,15.70
2018-10-05T23:46:16.703Z,14.17
2018-10-05T23:48:44.845Z,14.00
2018-10-05T23:51:13.094Z,14.53
2018-10-05T23:53:41.382Z,14.60
2018-10-05T23:56:09.606Z,14.73
2018-10-05T23:58:37.770Z,14.83
